Time;durP1;ratioP1;P1;durP2;ratioP2;P2;SDS_P1;SDS_P2;PMS_P1;PMS_P2;Temp;Humidity;BMP_temperature;BMP_pressure;BME280_temperature;BME280_humidity;BME280_pressure;Samples;Min_cycle;Max_cycle;Signal;HPM_P1;HPM_P2
2024/01/11 00:04:22;;;;;;;347.40;118.80;;;;;;;-12.19;92.67;100238.15;272765;1277;22221;-80
2024/01/11 00:10:29;;;;;;;338.50;118.60;;;;;;;-12.10;93.11;100227.92;272775;1275;22202;-79
2024/01/11 00:16:31;;;;;;;335.30;119.70;;;;;;;-12.02;93.38;100217.84;272643;1275;22232;-79
2024/01/11 00:22:33;;;;;;;338.70;123.10;;;;;;;-11.96;93.48;100214.71;272630;1274;22370;-79
2024/01/11 00:28:57;;;;;;;345.20;119.60;;;;;;;-12.01;93.04;100214.50;272738;1274;23419;-80
2024/01/11 00:35:10;;;;;;;341.50;121.70;;;;;;;-12.05;93.32;100204.63;272603;1273;22221;-80
2024/01/11 00:41:13;;;;;;;339.50;116.60;;;;;;;-12.10;93.26;100206.85;272268;1275;22485;-79
2024/01/11 00:47:16;;;;;;;337.40;115.40;;;;;;;-12.14;93.41;100201.45;272354;1270;22388;-79
2024/01/11 00:53:18;;;;;;;263.60;91.50;;;;;;;-12.10;93.59;100199.19;271844;1274;22954;-80
2024/01/11 00:59:20;;;;;;;302.10;102.00;;;;;;;-12.10;93.51;100200.23;272501;1274;23150;-79
2024/01/11 01:05:24;;;;;;;281.90;102.90;;;;;;;-12.20;92.84;100181.83;271750;1267;22588;-79
2024/01/11 01:11:26;;;;;;;345.30;114.60;;;;;;;-12.29;93.07;100178.08;270349;1274;22553;-79
2024/01/11 01:17:36;;;;;;;329.30;116.70;;;;;;;-12.26;93.24;100175.95;271565;1273;23298;-79
2024/01/11 01:23:38;;;;;;;325.70;116.50;;;;;;;-12.22;93.50;100175.77;270597;1274;24256;-79
2024/01/11 01:29:40;;;;;;;320.00;109.80;;;;;;;-12.20;93.50;100173.66;272892;1267;22256;-79
2024/01/11 01:35:42;;;;;;;328.70;113.60;;;;;;;-12.22;93.19;100164.31;272551;1275;22987;-80
2024/01/11 01:41:43;;;;;;;341.70;121.30;;;;;;;-12.31;92.92;100159.55;271380;1274;22928;-80
2024/01/11 01:47:45;;;;;;;328.30;114.70;;;;;;;-12.48;92.73;100164.75;272155;1273;23055;-79
2024/01/11 01:53:48;;;;;;;322.30;111.10;;;;;;;-12.59;92.56;100165.85;272706;1274;22496;-80
2024/01/11 01:59:57;;;;;;;326.50;115.50;;;;;;;-12.74;92.56;100162.27;272820;1278;22321;-79
2024/01/11 02:05:58;;;;;;;344.90;115.10;;;;;;;-12.68;92.99;100147.88;272672;1274;23235;-80
2024/01/11 02:12:00;;;;;;;317.80;112.40;;;;;;;-12.65;92.77;100153.29;271240;1275;22519;-79
2024/01/11 02:18:02;;;;;;;331.50;113.60;;;;;;;-12.66;92.97;100153.48;271781;1271;22218;-79
2024/01/11 02:24:24;;;;;;;341.20;116.70;;;;;;;-12.63;93.42;100144.61;269978;1275;22552;-79
2024/01/11 02:37:05;;;;;;;320.40;111.80;;;;;;;-12.70;93.59;100135.14;265690;1264;22228;-80
2024/01/11 02:43:30;;;;;;;288.70;97.90;;;;;;;-12.63;93.73;100133.29;272129;1280;22279;-80
2024/01/11 02:49:32;;;;;;;314.90;109.40;;;;;;;-12.68;93.37;100111.65;272304;1282;22262;-80
2024/01/11 02:55:38;;;;;;;326.30;109.00;;;;;;;-12.62;93.93;100115.80;272327;1283;22250;-80
2024/01/11 03:01:39;;;;;;;317.10;113.80;;;;;;;-12.42;95.03;100126.16;271340;1277;23111;-80
2024/01/11 03:07:41;;;;;;;276.10;93.30;;;;;;;-12.19;95.75;100131.67;272429;1279;22347;-80
2024/01/11 03:13:43;;;;;;;332.50;112.20;;;;;;;-12.03;95.82;100140.82;272414;1283;22298;-80
2024/01/11 03:19:45;;;;;;;301.50;105.80;;;;;;;-11.89;96.26;100139.25;272552;1276;22315;-80
2024/01/11 03:26:13;;;;;;;325.10;109.30;;;;;;;-11.81;96.17;100127.11;272390;1280;23843;-80
2024/01/11 03:32:15;;;;;;;288.80;95.30;;;;;;;-11.69;96.75;100117.14;272509;1282;22510;-80
2024/01/11 03:38:25;;;;;;;269.20;88.60;;;;;;;-11.37;97.18;100103.88;272326;1282;22240;-80
2024/01/11 03:44:41;;;;;;;310.70;108.90;;;;;;;-11.20;97.60;100088.86;269835;1275;22552;-80
2024/01/11 03:50:43;;;;;;;306.00;103.50;;;;;;;-11.20;97.35;100087.73;270571;1274;22203;-80
2024/01/11 03:56:50;;;;;;;311.80;106.00;;;;;;;-11.24;97.21;100080.13;272470;1276;22224;-80
2024/01/11 04:02:54;;;;;;;292.10;96.70;;;;;;;-11.26;96.95;100091.79;272423;1280;22217;-80
2024/01/11 04:09:16;;;;;;;278.90;96.90;;;;;;;-11.32;96.82;100092.41;272435;1276;22255;-80
2024/01/11 04:15:37;;;;;;;298.70;103.50;;;;;;;-11.29;97.17;100096.46;272302;1276;22445;-81
2024/01/11 04:21:40;;;;;;;305.70;107.80;;;;;;;-11.24;97.34;100081.11;272378;1260;22329;-80
2024/01/11 04:28:01;;;;;;;289.20;105.40;;;;;;;-11.27;96.77;100080.79;271522;1273;23857;-81
2024/01/11 04:34:03;;;;;;;265.80;88.80;;;;;;;-11.43;96.09;100086.75;269144;1276;22566;-80
2024/01/11 04:40:07;;;;;;;278.40;96.60;;;;;;;-11.69;95.69;100078.77;269124;1277;22576;-80
2024/01/11 04:46:57;;;;;;;242.70;83.30;;;;;;;-11.75;96.20;100076.42;271166;1264;22231;-80
2024/01/11 04:53:19;;;;;;;276.20;92.90;;;;;;;-11.72;96.47;100060.90;272424;1272;23519;-80
2024/01/11 04:59:21;;;;;;;264.30;94.90;;;;;;;-11.70;96.36;100044.20;272377;1280;22414;-81
2024/01/11 05:05:42;;;;;;;287.90;100.90;;;;;;;-11.80;95.73;100052.09;272596;1276;23393;-80
2024/01/11 05:11:44;;;;;;;279.70;92.00;;;;;;;-11.93;95.35;100059.44;272468;1275;22432;-81
2024/01/11 05:17:46;;;;;;;294.70;100.30;;;;;;;-12.11;95.35;100047.95;272515;1276;22321;-81
2024/01/11 05:23:49;;;;;;;272.60;96.10;;;;;;;-12.09;95.96;100038.70;272493;1277;23008;-80
2024/01/11 05:29:51;;;;;;;247.20;86.20;;;;;;;-12.01;95.88;100019.10;272438;1280;23277;-80
2024/01/11 05:35:53;;;;;;;279.30;94.20;;;;;;;-12.10;95.55;100001.28;270920;1276;22555;-80
2024/01/11 05:41:55;;;;;;;282.90;91.70;;;;;;;-12.16;95.56;99998.99;269421;1276;22563;-80
2024/01/11 05:47:56;;;;;;;316.90;99.90;;;;;;;-12.20;95.82;100003.45;270651;1280;24229;-79
2024/01/11 05:53:58;;;;;;;279.80;90.90;;;;;;;-12.28;95.43;99997.85;271164;1277;22211;-80
2024/01/11 06:00:00;;;;;;;273.20;94.10;;;;;;;-12.42;95.46;99999.40;272405;1265;23002;-80
2024/01/11 06:06:04;;;;;;;223.50;77.30;;;;;;;-12.37;95.71;100008.94;272500;1277;22277;-80
2024/01/11 06:12:22;;;;;;;188.60;67.80;;;;;;;-12.32;95.87;100010.11;272525;1270;22342;-80
2024/01/11 06:18:24;;;;;;;222.70;78.40;;;;;;;-12.13;96.43;99997.52;272816;1281;22705;-80
2024/01/11 06:24:26;;;;;;;285.40;95.40;;;;;;;-11.93;96.83;100008.29;272532;1276;22394;-79
2024/01/11 06:30:28;;;;;;;282.40;96.40;;;;;;;-11.74;97.57;100017.48;272337;1276;22214;-79
2024/01/11 06:36:31;;;;;;;227.00;81.40;;;;;;;-11.61;97.61;100012.59;272297;1280;22188;-79
2024/01/11 06:42:36;;;;;;;267.30;91.90;;;;;;;-11.56;97.67;100004.13;272350;1275;22373;-79
2024/01/11 06:48:40;;;;;;;190.90;65.20;;;;;;;-11.45;98.01;99996.63;272549;1277;22922;-79
2024/01/11 06:54:42;;;;;;;196.40;66.20;;;;;;;-11.38;97.79;99970.95;271401;1275;22515;-80
2024/01/11 07:00:44;;;;;;;213.40;73.40;;;;;;;-11.26;98.47;99957.35;271284;1277;22334;-80
2024/01/11 07:06:45;;;;;;;215.80;77.00;;;;;;;-10.99;99.01;99928.61;272438;1276;23071;-80
2024/01/11 07:12:56;;;;;;;233.10;80.00;;;;;;;-10.70;99.44;99915.26;272213;1277;22755;-80
2024/01/11 07:19:11;;;;;;;244.70;86.60;;;;;;;-10.46;99.65;99910.36;271290;1268;22253;-81
2024/01/11 07:26:04;;;;;;;;;;;;;;;;;;;;;
2024/01/11 07:32:47;;;;;;;272.10;96.40;;;;;;;-10.21;99.71;99883.53;272219;1274;22207;-80
2024/01/11 07:38:50;;;;;;;268.90;95.60;;;;;;;-10.11;99.97;99883.09;272526;1277;22154;-79
2024/01/11 07:44:52;;;;;;;275.20;96.30;;;;;;;-9.91;100.00;99889.44;272414;1275;22305;-80
2024/01/11 07:51:13;;;;;;;271.20;102.20;;;;;;;-9.56;100.00;99894.95;272409;1276;22334;-79
2024/01/11 07:57:35;;;;;;;296.90;112.20;;;;;;;-9.08;100.00;99908.77;271521;1277;23354;-80
2024/01/11 08:03:37;;;;;;;250.50;88.30;;;;;;;-8.62;100.00;99918.11;270276;1275;26136;-79
2024/01/11 08:09:44;;;;;;;262.50;100.60;;;;;;;-8.24;100.00;99899.82;271050;1275;23688;-82
2024/01/11 08:15:49;;;;;;;221.90;81.00;;;;;;;-7.50;100.00;99884.45;272203;1271;22229;-81
2024/01/11 08:21:51;;;;;;;226.00;86.70;;;;;;;-7.07;100.00;99880.64;272309;1274;22410;-80
2024/01/11 08:28:13;;;;;;;234.90;88.90;;;;;;;-6.85;100.00;99883.45;272313;1271;23403;-81
2024/01/11 08:34:15;;;;;;;203.90;83.20;;;;;;;-6.69;100.00;99872.80;272257;1277;23372;-81
2024/01/11 08:40:17;;;;;;;220.80;82.60;;;;;;;-6.37;100.00;99856.52;272287;1277;22182;-82
2024/01/11 08:46:26;;;;;;;209.00;82.20;;;;;;;-6.14;99.97;99847.26;272535;1276;22286;-80
2024/01/11 08:52:28;;;;;;;198.30;81.80;;;;;;;-5.96;100.00;99854.42;272390;1267;22206;-80
2024/01/11 08:58:30;;;;;;;201.90;83.40;;;;;;;-5.66;100.00;99868.86;271101;1276;22201;-81
2024/01/11 09:04:31;;;;;;;216.20;86.90;;;;;;;-5.45;99.97;99864.57;271836;1277;23104;-80
2024/01/11 09:10:33;;;;;;;214.40;88.40;;;;;;;-5.35;100.00;99859.71;271456;1280;25012;-80
2024/01/11 09:16:36;;;;;;;207.70;86.40;;;;;;;-5.27;99.94;99835.57;271775;1271;22231;-80
2024/01/11 09:22:38;;;;;;;193.30;79.40;;;;;;;-5.08;100.00;99850.64;272390;1276;22259;-79
2024/01/11 09:28:40;;;;;;;194.80;81.30;;;;;;;-4.86;100.00;99867.09;272105;1275;122357;-80
2024/01/11 09:34:45;;;;;;;150.90;60.30;;;;;;;-4.69;100.00;99871.61;272233;1273;22231;-80
2024/01/11 09:40:50;;;;;;;111.00;46.50;;;;;;;-4.54;100.00;99861.31;271418;1271;22248;-80
2024/01/11 09:46:53;;;;;;;136.20;58.00;;;;;;;-4.37;100.00;99847.64;272150;1275;22501;-81
2024/01/11 09:52:55;;;;;;;127.40;51.20;;;;;;;-4.12;100.00;99836.95;272559;1277;22297;-80
2024/01/11 09:58:57;;;;;;;116.70;47.90;;;;;;;-3.85;99.98;99827.40;272533;1276;22200;-80
2024/01/11 10:04:59;;;;;;;108.90;44.20;;;;;;;-3.64;99.76;99824.86;272144;1277;22381;-81
2024/01/11 10:11:03;;;;;;;108.60;47.40;;;;;;;-3.36;99.60;99811.98;272327;1275;22247;-81
2024/01/11 10:17:06;;;;;;;87.30;36.90;;;;;;;-3.02;99.39;99798.05;271710;1276;23346;-81
2024/01/11 10:23:08;;;;;;;58.00;23.70;;;;;;;-2.79;99.12;99796.13;268996;1268;22581;-82
2024/01/11 10:29:10;;;;;;;37.70;17.30;;;;;;;-2.57;97.78;99787.85;271426;1276;22423;-82
2024/01/11 10:35:13;;;;;;;33.60;14.20;;;;;;;-2.38;96.69;99777.73;271546;1267;22308;-81
2024/01/11 10:41:18;;;;;;;30.30;13.40;;;;;;;-2.23;96.05;99779.25;272403;1276;22289;-81
2024/01/11 10:47:22;;;;;;;30.20;12.60;;;;;;;-2.14;95.54;99765.98;272463;1277;22211;-82
2024/01/11 10:53:50;;;;;;;26.10;11.60;;;;;;;-2.00;94.86;99761.84;272650;1281;22237;-81
2024/01/11 10:59:55;;;;;;;29.90;12.80;;;;;;;-1.83;94.84;99747.44;272384;1276;22449;-81
2024/01/11 11:06:02;;;;;;;24.70;12.20;;;;;;;-1.63;94.52;99737.34;271406;1269;22745;-81
2024/01/11 11:12:05;;;;;;;31.80;12.20;;;;;;;-1.46;94.44;99725.64;271034;1268;22694;-81
2024/01/11 11:18:07;;;;;;;31.50;12.60;;;;;;;-1.37;93.91;99726.07;270642;1276;22298;-81
2024/01/11 11:24:12;;;;;;;32.20;13.10;;;;;;;-1.30;93.81;99713.18;270674;1275;23057;-81
2024/01/11 11:30:14;;;;;;;26.30;11.80;;;;;;;-1.23;92.96;99696.03;272632;1282;23425;-81
2024/01/11 11:36:17;;;;;;;27.10;11.60;;;;;;;-1.18;93.02;99686.95;272395;1267;23330;-81
2024/01/11 11:42:25;;;;;;;23.80;9.50;;;;;;;-1.18;92.96;99678.27;271908;1277;22519;-80
2024/01/11 11:48:50;;;;;;;;;;;;;;;;;;;;;
2024/01/11 11:54:53;;;;;;;24.40;10.70;;;;;;;-1.16;91.24;99650.38;271640;1270;22184;-80
2024/01/11 12:00:55;;;;;;;21.50;9.60;;;;;;;-1.17;90.76;99646.62;272400;1274;22430;-81
2024/01/11 12:06:57;;;;;;;32.10;11.70;;;;;;;-1.20;90.53;99643.36;272363;1268;22396;-82
2024/01/11 12:13:00;;;;;;;33.00;11.60;;;;;;;-1.18;90.21;99639.96;272484;1274;22988;-81
2024/01/11 12:19:02;;;;;;;26.20;10.80;;;;;;;-1.09;90.28;99640.25;272368;1270;23594;-81
2024/01/11 12:25:04;;;;;;;26.90;10.70;;;;;;;-1.01;89.36;99631.84;272533;1273;22419;-81
2024/01/11 12:31:06;;;;;;;21.40;10.80;;;;;;;-0.95;88.75;99612.27;272250;1268;22212;-81
2024/01/11 12:37:08;;;;;;;24.10;11.10;;;;;;;-0.96;88.38;99610.19;272519;1271;22322;-80
2024/01/11 12:43:12;;;;;;;39.80;14.70;;;;;;;-1.00;88.08;99598.24;272434;1268;22217;-80
2024/01/11 12:49:15;;;;;;;36.40;13.80;;;;;;;-1.01;88.39;99589.45;271017;1267;22570;-81
2024/01/11 12:55:18;;;;;;;39.90;12.30;;;;;;;-1.00;88.98;99563.27;272345;1277;22417;-81
2024/01/11 13:01:19;;;;;;;35.50;13.00;;;;;;;-0.94;89.02;99550.60;272419;1277;22205;-81
2024/01/11 13:07:22;;;;;;;33.10;13.50;;;;;;;-0.89;88.46;99543.14;272600;1283;23198;-81
2024/01/11 13:13:25;;;;;;;32.70;13.70;;;;;;;-0.86;87.88;99550.29;271780;1273;22546;-81
2024/01/11 13:19:27;;;;;;;30.30;13.10;;;;;;;-0.83;87.27;99552.41;270180;1277;23268;-80
2024/01/11 13:25:29;;;;;;;38.30;14.60;;;;;;;-0.80;87.09;99541.77;272159;1275;22504;-81
2024/01/11 13:31:31;;;;;;;33.70;13.30;;;;;;;-0.77;87.53;99538.64;272664;1283;22305;-81
2024/01/11 13:37:36;;;;;;;36.00;14.30;;;;;;;-0.79;86.73;99534.83;272400;1268;22407;-83
2024/01/11 13:43:38;;;;;;;34.30;14.40;;;;;;;-0.82;86.77;99522.08;272416;1267;22364;-80
2024/01/11 13:49:40;;;;;;;40.50;15.30;;;;;;;-0.92;86.35;99525.59;272192;1274;22236;-80
2024/01/11 13:55:43;;;;;;;34.00;16.70;;;;;;;-1.05;86.32;99536.75;271590;1277;22579;-80
2024/01/11 14:01:45;;;;;;;43.20;19.20;;;;;;;-1.17;86.00;99560.48;270564;1268;22542;-81
2024/01/11 14:07:47;;;;;;;47.60;18.40;;;;;;;-1.26;86.14;99559.39;271881;1275;22409;-81
2024/01/11 14:14:04;;;;;;;41.60;17.90;;;;;;;-1.32;86.39;99554.52;272498;1275;22321;-80
2024/01/11 14:20:11;;;;;;;44.90;19.60;;;;;;;-1.39;86.02;99554.79;272494;1277;22282;-80
2024/01/11 14:26:13;;;;;;;42.40;18.90;;;;;;;-1.44;85.60;99559.67;272366;1276;22230;-81
2024/01/11 14:32:16;;;;;;;49.80;20.50;;;;;;;-1.50;85.78;99560.70;272429;1274;22450;-81
2024/01/11 14:38:18;;;;;;;53.10;23.10;;;;;;;-1.55;86.26;99567.19;272507;1276;22291;-80
2024/01/11 14:44:20;;;;;;;47.80;19.60;;;;;;;-1.63;86.75;99568.38;272354;1276;22201;-80
2024/01/11 14:50:22;;;;;;;57.30;23.00;;;;;;;-1.66;87.11;99583.92;272681;1283;22247;-81
2024/01/11 14:56:24;;;;;;;58.20;24.00;;;;;;;-1.74;87.52;99596.33;272206;1268;22193;-81
2024/01/11 15:02:37;;;;;;;55.80;24.70;;;;;;;-1.80;87.16;99615.88;272304;1271;23441;-82
2024/01/11 15:08:39;;;;;;;58.30;24.60;;;;;;;-1.87;87.77;99630.08;272417;1278;22232;-81
2024/01/11 15:14:42;;;;;;;60.80;25.30;;;;;;;-1.96;88.56;99636.74;272300;1276;22183;-81
2024/01/11 15:20:45;;;;;;;62.10;26.50;;;;;;;-2.08;88.91;99640.95;272361;1277;22219;-81
2024/01/11 15:27:07;;;;;;;58.60;26.60;;;;;;;-2.15;89.42;99639.21;272356;1274;22330;-81
2024/01/11 15:33:09;;;;;;;67.10;28.10;;;;;;;-2.21;89.86;99631.89;272396;1277;22234;-80
2024/01/11 15:39:11;;;;;;;67.40;30.20;;;;;;;-2.27;90.92;99629.78;272251;1275;23632;-81
2024/01/11 15:45:14;;;;;;;63.60;26.50;;;;;;;-2.34;91.90;99628.52;272639;1274;22215;-82
2024/01/11 15:51:16;;;;;;;70.10;28.10;;;;;;;-2.41;92.39;99635.00;272372;1275;22408;-81
2024/01/11 15:57:40;;;;;;;79.50;30.20;;;;;;;-2.48;92.96;99642.70;272330;1277;22358;-82
2024/01/11 16:04:05;;;;;;;72.20;31.30;;;;;;;-2.55;93.84;99650.81;272451;1280;22220;-81
2024/01/11 16:10:08;;;;;;;77.40;32.30;;;;;;;-2.61;94.69;99651.31;272382;1277;22291;-82
2024/01/11 16:16:27;;;;;;;80.60;37.00;;;;;;;-2.73;94.79;99645.73;272453;1277;22274;-81
2024/01/11 16:22:30;;;;;;;88.20;36.10;;;;;;;-2.80;95.67;99646.88;272555;1275;22215;-82
2024/01/11 16:28:33;;;;;;;85.30;37.20;;;;;;;-2.87;96.11;99648.93;272480;1271;23256;-82
2024/01/11 16:34:38;;;;;;;79.50;36.40;;;;;;;-2.91;96.39;99646.05;272616;1274;22240;-81
2024/01/11 16:41:06;;;;;;;85.20;36.10;;;;;;;-2.97;96.72;99647.50;272636;1276;22190;-81
2024/01/11 16:47:35;;;;;;;78.10;34.80;;;;;;;-3.01;97.78;99647.23;271194;1268;22454;-84
2024/01/11 16:53:55;;;;;;;;;;;;;;;;;;;;;
2024/01/11 17:00:05;;;;;;;91.70;41.20;;;;;;;-3.06;98.78;99643.17;269768;1268;24255;-82
2024/01/11 17:06:47;;;;;;;91.70;42.60;;;;;;;-3.07;99.43;99638.79;270817;1276;22308;-83
2024/01/11 17:12:50;;;;;;;90.30;38.70;;;;;;;-3.12;99.47;99631.52;271002;1270;23287;-82
2024/01/11 17:18:52;;;;;;;84.50;37.50;;;;;;;-3.16;99.64;99634.04;271402;1268;22444;-82
2024/01/11 17:24:54;;;;;;;82.60;37.70;;;;;;;-3.20;99.93;99634.58;272394;1274;22550;-82
2024/01/11 17:30:56;;;;;;;88.50;35.30;;;;;;;-3.23;99.96;99635.02;270817;1275;22796;-82
2024/01/11 17:36:58;;;;;;;91.00;38.70;;;;;;;-3.23;100.00;99637.36;270878;1269;22514;-83
2024/01/11 17:43:43;;;;;;;88.60;35.90;;;;;;;-3.22;100.00;99642.89;269946;1275;22405;-83
2024/01/11 17:49:44;;;;;;;83.70;35.30;;;;;;;-3.23;100.00;99648.93;271182;1271;22226;-83
2024/01/11 17:55:46;;;;;;;81.20;35.40;;;;;;;-3.24;100.00;99653.59;272332;1267;22753;-83
2024/01/11 18:01:48;;;;;;;81.90;32.90;;;;;;;-3.24;100.00;99656.91;272202;1274;22425;-82
2024/01/11 18:07:50;;;;;;;77.60;35.10;;;;;;;-3.24;100.00;99660.45;270565;1275;22576;-82
2024/01/11 18:14:12;;;;;;;85.50;35.00;;;;;;;-3.23;100.00;99658.45;271740;1271;22231;-81
2024/01/11 18:20:15;;;;;;;84.10;36.60;;;;;;;-3.22;100.00;99666.17;272321;1276;22233;-83
2024/01/11 18:26:17;;;;;;;91.00;38.30;;;;;;;-3.18;100.00;99672.98;272316;1272;22409;-82
2024/01/11 18:32:40;;;;;;;88.40;37.90;;;;;;;-3.14;100.00;99673.66;272497;1281;22425;-82
2024/01/11 18:39:03;;;;;;;88.40;39.40;;;;;;;-3.13;100.00;99674.58;272453;1280;22372;-81
2024/01/11 18:45:06;;;;;;;96.60;37.60;;;;;;;-3.15;100.00;99668.36;272613;1279;22162;-83
2024/01/11 18:51:47;;;;;;;85.60;38.50;;;;;;;-3.19;100.00;99658.20;272731;1282;22236;-83
2024/01/11 18:57:51;;;;;;;88.00;37.80;;;;;;;-3.22;100.00;99656.44;272641;1277;23392;-82
2024/01/11 19:03:54;;;;;;;97.10;39.70;;;;;;;-3.22;100.00;99648.98;272615;1277;22239;-82
2024/01/11 19:10:35;;;;;;;79.60;38.20;;;;;;;-3.22;100.00;99649.27;272644;1279;22201;-83
2024/01/11 19:16:45;;;;;;;91.00;38.80;;;;;;;-3.23;100.00;99660.86;271730;1279;23103;-82
2024/01/11 19:23:28;;;;;;;90.70;38.70;;;;;;;-3.22;100.00;99662.43;271437;1286;22250;-81
2024/01/11 19:30:11;;;;;;;88.90;39.30;;;;;;;-3.21;100.00;99659.43;271731;1279;22624;-82
2024/01/11 19:36:14;;;;;;;92.00;38.90;;;;;;;-3.20;100.00;99663.86;271660;1279;22320;-82
2024/01/11 19:42:40;;;;;;;88.90;38.00;;;;;;;-3.21;100.00;99660.65;271903;1276;22386;-83
2024/01/11 19:48:50;;;;;;;93.00;42.20;;;;;;;-3.24;100.00;99662.38;272346;1283;22267;-82
2024/01/11 19:55:13;;;;;;;96.40;42.60;;;;;;;-3.23;100.00;99660.55;272271;1279;22287;-83
2024/01/11 20:01:17;;;;;;;85.70;38.30;;;;;;;-3.27;100.00;99658.20;272269;1282;22201;-83
2024/01/11 20:07:42;;;;;;;73.30;30.50;;;;;;;-3.29;100.00;99654.52;272495;1276;23000;-82
2024/01/11 20:13:45;;;;;;;87.00;39.60;;;;;;;-3.30;100.00;99646.96;264651;1277;10001855;-84
2024/01/11 20:20:21;;;;;;;88.40;39.60;;;;;;;-3.29;100.00;99646.52;272520;1282;22222;-82
2024/01/11 20:26:26;;;;;;;88.30;40.20;;;;;;;-3.31;100.00;99650.76;272424;1276;22717;-82
2024/01/11 20:32:48;;;;;;;98.00;40.50;;;;;;;-3.33;100.00;99653.13;272427;1277;22446;-83
2024/01/11 20:39:10;;;;;;;87.30;38.00;;;;;;;-3.34;100.00;99661.48;272353;1271;22240;-84
2024/01/11 20:45:39;;;;;;;92.80;41.00;;;;;;;-3.35;100.00;99663.17;272339;1277;23398;-83
2024/01/11 20:51:44;;;;;;;94.80;41.00;;;;;;;-3.34;100.00;99667.04;272314;1277;22197;-82
2024/01/11 20:58:26;;;;;;;63.40;29.10;;;;;;;-3.32;100.00;99672.08;272419;1276;23338;-84
2024/01/11 21:05:09;;;;;;;86.80;37.90;;;;;;;-3.33;100.00;99689.70;272200;1283;23514;-83
2024/01/11 21:11:13;;;;;;;98.00;41.70;;;;;;;-3.33;100.00;99696.48;272348;1277;23506;-84
2024/01/11 21:17:15;;;;;;;89.60;38.30;;;;;;;-3.33;100.00;99690.13;272327;1276;22387;-83
2024/01/11 21:23:37;;;;;;;95.70;42.60;;;;;;;-3.33;100.00;99693.77;272539;1283;22390;-84
2024/01/11 21:29:59;;;;;;;93.40;43.50;;;;;;;-3.34;100.00;99703.03;272448;1276;156780;-83
2024/01/11 21:36:01;;;;;;;99.30;41.70;;;;;;;-3.32;100.00;99709.51;272307;1274;22193;-84
2024/01/11 21:42:03;;;;;;;92.80;40.20;;;;;;;-3.31;100.00;99710.73;272408;1272;22787;-83
2024/01/11 21:48:05;;;;;;;90.80;41.10;;;;;;;-3.30;100.00;99718.28;272380;1283;22230;-82
2024/01/11 21:54:07;;;;;;;90.00;39.40;;;;;;;-3.31;100.00;99722.58;271478;1275;22472;-83
2024/01/11 22:00:09;;;;;;;95.30;40.80;;;;;;;-3.32;100.00;99722.14;271642;1277;22384;-83
2024/01/11 22:06:39;;;;;;;86.20;39.30;;;;;;;-3.31;100.00;99724.55;272279;1277;22229;-84
2024/01/11 22:12:41;;;;;;;92.90;38.70;;;;;;;-3.31;100.00;99723.96;272223;1280;22442;-83
2024/01/11 22:18:56;;;;;;;92.60;38.30;;;;;;;-3.31;100.00;99731.46;272528;1259;22253;-83
2024/01/11 22:24:58;;;;;;;87.20;36.60;;;;;;;-3.31;100.00;99737.24;272376;1276;23157;-83
2024/01/11 22:31:21;;;;;;;85.80;35.80;;;;;;;-3.31;100.00;99732.91;272446;1278;22253;-83
2024/01/11 22:37:23;;;;;;;87.70;36.60;;;;;;;-3.29;100.00;99734.73;272403;1277;22400;-86
2024/01/11 22:43:25;;;;;;;89.70;38.70;;;;;;;-3.28;100.00;99731.99;272376;1278;23069;-84
2024/01/11 22:49:27;;;;;;;82.10;37.10;;;;;;;-3.28;100.00;99728.57;272352;1276;22297;-84
2024/01/11 22:55:49;;;;;;;94.80;40.60;;;;;;;-3.28;100.00;99724.98;271868;1277;22223;-84
2024/01/11 23:02:11;;;;;;;91.20;40.10;;;;;;;-3.27;100.00;99732.70;272436;1276;22254;-84
2024/01/11 23:08:53;;;;;;;91.30;38.70;;;;;;;-3.25;100.00;99736.77;272445;1276;22216;-84
2024/01/11 23:14:55;;;;;;;76.00;36.30;;;;;;;-3.23;100.00;99742.06;271345;1277;22747;-84
2024/01/11 23:20:57;;;;;;;84.30;38.10;;;;;;;-3.23;100.00;99742.48;271417;1276;22388;-85
2024/01/11 23:27:19;;;;;;;83.80;36.20;;;;;;;-3.22;100.00;99745.55;272582;1283;22221;-85
2024/01/11 23:33:21;;;;;;;83.60;35.70;;;;;;;-3.18;100.00;99750.52;272355;1277;22203;-84
2024/01/11 23:39:42;;;;;;;77.70;33.80;;;;;;;-3.15;100.00;99752.25;272384;1275;23534;-84
2024/01/11 23:45:59;;;;;;;74.30;32.40;;;;;;;-3.12;100.00;99750.42;272542;1283;22194;-84
2024/01/11 23:52:21;;;;;;;73.20;32.30;;;;;;;-3.09;100.00;99747.48;272748;1277;22212;-84
2024/01/11 23:58:43;;;;;;;74.00;33.00;;;;;;;-3.08;100.00;99753.19;272518;1277;22678;-84
